This is the latest recevied weather packets stored in our database for station/object DL0BB-10. If no packets are shown the sender has not sent any weather packets the latest 10 day(s).
| Time | Temp. | Humidity | Pressure | Rain* | Wind** | Luminosity | Snow |
|---|---|---|---|---|---|---|---|
| 1787953483 | 26.11° C | 44% | 1017.2 hPa | - | - | - | - |
| 1787952583 | 26.11° C | 44% | 1017.1 hPa | - | - | - | - |
| 1787950774 | 27.22° C | 42% | 1016.5 hPa | - | - | - | - |
| 1787949879 | 26.11° C | 44% | 1016.5 hPa | - | - | - | - |
| 1787948979 | 26.67° C | 44% | 1016.2 hPa | - | - | - | - |
| 1787948079 | 27.22° C | 43% | 1015.9 hPa | - | - | - | - |
| 1787947179 | 27.22° C | 42% | 1015.6 hPa | - | - | - | - |
| 1787946279 | 26.67° C | 44% | 1015.5 hPa | - | - | - | - |
| 1787945379 | 26.67° C | 44% | 1015.4 hPa | - | - | - | - |
| 1787944479 | 27.22° C | 42% | 1015.1 hPa | - | - | - | - |
| 1787943578 | 26.67° C | 43% | 1015.1 hPa | - | - | - | - |
| 1787942678 | 26.11° C | 43% | 1015 hPa | - | - | - | - |
| 1787941778 | 26.67° C | 42% | 1014.8 hPa | - | - | - | - |
| 1787940877 | 27.78° C | 41% | 1014.3 hPa | - | - | - | - |
| 1787939977 | 26.67° C | 43% | 1014.1 hPa | - | - | - | - |
| 1787939077 | 26.67° C | 43% | 1014.1 hPa | - | - | - | - |
| 1787938176 | 27.22° C | 42% | 1013.7 hPa | - | - | - | - |
| 1787937276 | 27.78° C | 42% | 1013.5 hPa | - | - | - | - |
| 1787936376 | 26.67° C | 44% | 1013.4 hPa | - | - | - | - |
| 1787935476 | 26.67° C | 43% | 1013.2 hPa | - | - | - | - |
| 1787934576 | 27.22° C | 42% | 1012.9 hPa | - | - | - | - |
| 1787933675 | 27.22° C | 42% | 1012.7 hPa | - | - | - | - |
| 1787932775 | 26.67° C | 44% | 1012.6 hPa | - | - | - | - |
| 1787931875 | 27.22° C | 43% | 1012.5 hPa | - | - | - | - |
| 1787930974 | 27.22° C | 42% | 1012.5 hPa | - | - | - | - |
* Rain since midnight (hover to see other rain measurements)
** Current wind speed in m/s (hover to see current wind gust speed)